createdAt,value
2024-01-05T00:01:54.091Z,100658.72
2024-01-05T00:04:20.485Z,100666.72
2024-01-05T00:06:47.579Z,100664.69
2024-01-05T00:09:14.132Z,100667.97
2024-01-05T00:11:40.868Z,100676.75
2024-01-05T00:14:07.844Z,100679.00
2024-01-05T00:16:34.388Z,100680.00
2024-01-05T00:19:00.999Z,100680.97
2024-01-05T00:21:28.345Z,100676.38
2024-01-05T00:23:55.959Z,100674.84
2024-01-05T00:26:22.599Z,100679.00
2024-01-05T00:28:50.276Z,100679.59
2024-01-05T00:31:16.959Z,100668.84
2024-01-05T00:33:44.637Z,100667.19
2024-01-05T00:36:11.277Z,100663.81
2024-01-05T00:38:38.025Z,100669.81
2024-01-05T00:41:05.076Z,100663.19
2024-01-05T00:43:32.093Z,100666.44
2024-01-05T00:45:58.880Z,100668.97
2024-01-05T00:48:25.747Z,100654.16
2024-01-05T00:50:52.215Z,100655.53
2024-01-05T00:53:19.012Z,100656.44
2024-01-05T00:55:45.658Z,100661.19
2024-01-05T00:58:12.373Z,100656.44
2024-01-05T01:00:38.842Z,100657.44
2024-01-05T01:03:05.395Z,100653.41
2024-01-05T01:05:31.903Z,100643.09
2024-01-05T01:07:58.591Z,100639.34
2024-01-05T01:10:25.428Z,100645.84
2024-01-05T01:12:51.752Z,100631.31
2024-01-05T01:15:18.525Z,100631.78
2024-01-05T01:17:45.659Z,100633.41
2024-01-05T01:20:12.378Z,100633.41
2024-01-05T01:22:38.820Z,100631.06
2024-01-05T01:25:05.699Z,100626.50
2024-01-05T01:27:32.260Z,100623.63
2024-01-05T01:29:59.251Z,100619.47
2024-01-05T01:32:25.630Z,100625.50
2024-01-05T01:34:52.088Z,100614.19
2024-01-05T01:37:18.840Z,100613.94
2024-01-05T01:39:45.240Z,100618.97
2024-01-05T01:42:12.070Z,100619.47
2024-01-05T01:44:38.935Z,100612.69
2024-01-05T01:47:05.446Z,100618.31
2024-01-05T01:49:32.437Z,100616.84
2024-01-05T01:51:58.868Z,100619.75
2024-01-05T01:54:25.871Z,100618.22
2024-01-05T01:56:52.522Z,100617.25
2024-01-05T01:59:18.881Z,100616.47
2024-01-05T02:01:45.988Z,100615.59
2024-01-05T02:04:16.035Z,100626.00
2024-01-05T02:06:45.120Z,100623.97
2024-01-05T02:09:11.667Z,100617.47
2024-01-05T02:11:38.446Z,100621.72
2024-01-05T02:14:04.754Z,100618.63
2024-01-05T02:16:31.508Z,100615.81
2024-01-05T02:18:57.884Z,100609.19
2024-01-05T02:21:25.395Z,100608.44
2024-01-05T02:23:52.576Z,100610.97
2024-01-05T02:26:18.904Z,100611.22
2024-01-05T02:28:45.180Z,100611.47
2024-01-05T02:31:11.858Z,100607.31
2024-01-05T02:33:39.255Z,100607.44
2024-01-05T02:36:06.032Z,100600.41
2024-01-05T02:38:32.384Z,100594.66
2024-01-05T02:40:59.771Z,100589.63
2024-01-05T02:43:26.293Z,100593.00
2024-01-05T02:45:52.624Z,100584.63
2024-01-05T02:48:19.143Z,100579.84
2024-01-05T02:50:45.563Z,100571.28
2024-01-05T02:53:12.329Z,100572.31
2024-01-05T02:55:38.656Z,100569.81
2024-01-05T02:58:05.081Z,100567.16
2024-01-05T03:00:32.017Z,100564.78
2024-01-05T03:02:58.471Z,100577.22
2024-01-05T03:05:24.865Z,100567.16
2024-01-05T03:07:51.900Z,100568.91
2024-01-05T03:10:18.505Z,100561.50
2024-01-05T03:12:44.785Z,100557.72
2024-01-05T03:15:11.367Z,100554.22
2024-01-05T03:17:37.769Z,100557.47
2024-01-05T03:20:04.479Z,100556.00
2024-01-05T03:22:32.386Z,100551.81
2024-01-05T03:24:58.897Z,100549.06
2024-01-05T03:27:25.274Z,100552.47
2024-01-05T03:29:51.652Z,100543.03
2024-01-05T03:32:18.056Z,100534.13
2024-01-05T03:34:44.489Z,100529.88
2024-01-05T03:37:10.763Z,100531.63
2024-01-05T03:39:37.090Z,100526.00
2024-01-05T03:42:03.760Z,100527.38
2024-01-05T03:44:30.487Z,100529.88
2024-01-05T03:46:57.260Z,100525.34
2024-01-05T03:49:23.782Z,100531.91
2024-01-05T03:51:50.500Z,100520.34
2024-01-05T03:54:17.301Z,100513.81
2024-01-05T03:56:47.178Z,100513.06
2024-01-05T03:59:14.176Z,100503.28
2024-01-05T04:01:45.208Z,100500.00
2024-01-05T04:04:11.688Z,100502.16
2024-01-05T04:06:38.405Z,100497.38
2024-01-05T04:09:05.173Z,100494.88
2024-01-05T04:11:32.203Z,100494.38
2024-01-05T04:13:58.749Z,100491.97
2024-01-05T04:16:25.418Z,100491.75
2024-01-05T04:18:52.151Z,100498.00
2024-01-05T04:21:19.004Z,100493.84
2024-01-05T04:23:45.354Z,100494.50
2024-01-05T04:26:11.666Z,100494.38
2024-01-05T04:28:38.377Z,100497.75
2024-01-05T04:31:04.856Z,100494.97
2024-01-05T04:33:31.824Z,100484.81
2024-01-05T04:35:58.173Z,100491.09
2024-01-05T04:38:24.481Z,100486.97
2024-01-05T04:40:50.885Z,100481.19
2024-01-05T04:43:17.232Z,100477.78
2024-01-05T04:45:43.881Z,100484.47
2024-01-05T04:48:10.875Z,100479.44
2024-01-05T04:50:37.244Z,100478.78
2024-01-05T04:53:03.866Z,100472.41
2024-01-05T04:55:30.199Z,100469.28
2024-01-05T04:57:57.984Z,100468.38
2024-01-05T05:00:24.368Z,100467.63
2024-01-05T05:02:51.187Z,100464.63
2024-01-05T05:05:17.999Z,100467.91
2024-01-05T05:07:44.730Z,100469.41
2024-01-05T05:10:11.086Z,100456.72
2024-01-05T05:12:38.468Z,100456.59
2024-01-05T05:15:05.099Z,100453.09
2024-01-05T05:17:31.870Z,100463.63
2024-01-05T05:19:58.583Z,100454.97
2024-01-05T05:22:24.964Z,100456.59
2024-01-05T05:24:56.131Z,100461.34
2024-01-05T05:27:22.474Z,100449.22
2024-01-05T05:29:48.867Z,100452.19
2024-01-05T05:32:15.657Z,100451.31
2024-01-05T05:34:42.936Z,100452.56
2024-01-05T05:37:09.279Z,100451.19
2024-01-05T05:39:35.990Z,100457.34
2024-01-05T05:42:02.740Z,100455.97
2024-01-05T05:44:29.388Z,100461.63
2024-01-05T05:46:55.811Z,100454.84
2024-01-05T05:49:22.428Z,100461.88
2024-01-05T05:51:48.934Z,100472.63
2024-01-05T05:54:16.529Z,100458.84
2024-01-05T05:56:42.881Z,100457.59
2024-01-05T05:59:09.545Z,100461.50
2024-01-05T06:01:35.887Z,100458.47
2024-01-05T06:04:02.313Z,100455.47
2024-01-05T06:06:28.970Z,100450.81
2024-01-05T06:08:56.330Z,100451.06
2024-01-05T06:11:23.190Z,100451.72
2024-01-05T06:13:49.470Z,100457.56
2024-01-05T06:16:15.780Z,100467.91
2024-01-05T06:18:43.209Z,100470.28
2024-01-05T06:21:09.972Z,100464.13
2024-01-05T06:23:36.433Z,100466.75
2024-01-05T06:26:03.187Z,100472.91
2024-01-05T06:28:29.567Z,100473.41
2024-01-05T06:30:56.448Z,100471.66
2024-01-05T06:33:23.032Z,100482.06
2024-01-05T06:35:49.743Z,100473.63
2024-01-05T06:38:16.578Z,100482.41
2024-01-05T06:40:43.184Z,100482.41
2024-01-05T06:43:09.513Z,100483.44
2024-01-05T06:45:35.872Z,100477.41
2024-01-05T06:48:02.821Z,100481.03
2024-01-05T06:50:29.441Z,100476.13
2024-01-05T06:52:56.286Z,100478.41
2024-01-05T06:55:23.002Z,100475.13
2024-01-05T06:57:49.776Z,100472.13
2024-01-05T07:00:16.297Z,100476.53
2024-01-05T07:02:43.180Z,100477.91
2024-01-05T07:05:09.635Z,100474.53
2024-01-05T07:07:35.977Z,100467.59
2024-01-05T07:10:02.670Z,100474.53
2024-01-05T07:12:29.048Z,100471.38
2024-01-05T07:14:55.384Z,100475.53
2024-01-05T07:17:22.268Z,100472.25
2024-01-05T07:19:48.611Z,100471.63
2024-01-05T07:22:14.919Z,100476.13
2024-01-05T07:24:41.501Z,100473.13
2024-01-05T07:27:08.010Z,100474.63
2024-01-05T07:29:34.801Z,100478.38
2024-01-05T07:32:01.103Z,100468.81
2024-01-05T07:34:28.280Z,100477.00
2024-01-05T07:36:54.636Z,100480.38
2024-01-05T07:39:21.318Z,100476.88
2024-01-05T07:41:48.533Z,100473.47
2024-01-05T07:44:14.908Z,100478.59
2024-01-05T07:46:42.383Z,100479.59
2024-01-05T07:49:09.157Z,100480.63
2024-01-05T07:51:37.986Z,100484.13
2024-01-05T07:54:04.919Z,100481.38
2024-01-05T07:56:31.687Z,100479.50
2024-01-05T07:58:58.370Z,100472.75
2024-01-05T08:01:24.694Z,100475.09
2024-01-05T08:03:51.271Z,100473.34
2024-01-05T08:06:18.558Z,100472.06
2024-01-05T08:08:46.492Z,100460.53
2024-01-05T08:11:13.187Z,100467.81
2024-01-05T08:13:40.177Z,100461.94
2024-01-05T08:16:07.379Z,100458.50
2024-01-05T08:18:33.908Z,100456.13
2024-01-05T08:21:00.742Z,100456.25
2024-01-05T08:23:27.156Z,100451.75
2024-01-05T08:25:53.852Z,100450.59
2024-01-05T08:28:20.207Z,100463.59
2024-01-05T08:30:47.056Z,100451.25
2024-01-05T08:33:13.583Z,100459.75
2024-01-05T08:35:40.198Z,100453.47
2024-01-05T08:38:06.543Z,100446.22
2024-01-05T08:40:33.270Z,100449.47
2024-01-05T08:42:59.571Z,100443.72
2024-01-05T08:45:26.536Z,100440.19
2024-01-05T08:47:54.238Z,100433.81
2024-01-05T08:50:20.762Z,100447.84
2024-01-05T08:52:47.210Z,100444.69
2024-01-05T08:55:17.145Z,100457.00
2024-01-05T08:57:44.389Z,100447.22
2024-01-05T09:00:13.540Z,100446.00
2024-01-05T09:02:40.144Z,100452.53
2024-01-05T09:05:07.031Z,100446.72
2024-01-05T09:07:35.394Z,100450.38
2024-01-05T09:10:03.590Z,100450.75
2024-01-05T09:12:29.982Z,100453.03
2024-01-05T09:14:56.677Z,100453.50
2024-01-05T09:17:22.946Z,100451.78
2024-01-05T09:19:49.723Z,100450.00
2024-01-05T09:22:16.291Z,100444.66
2024-01-05T09:24:43.011Z,100454.78
2024-01-05T09:27:09.361Z,100452.53
2024-01-05T09:29:36.108Z,100455.78
2024-01-05T09:32:02.457Z,100446.63
2024-01-05T09:34:29.100Z,100453.78
2024-01-05T09:36:55.707Z,100457.81
2024-01-05T09:39:22.504Z,100471.47
2024-01-05T09:41:49.478Z,100455.41
2024-01-05T09:44:17.141Z,100464.81
2024-01-05T09:46:44.033Z,100474.22
2024-01-05T09:49:10.662Z,100480.38
2024-01-05T09:51:37.950Z,100474.56
2024-01-05T09:54:04.498Z,100467.03
2024-01-05T09:56:31.992Z,100469.28
2024-01-05T09:58:58.721Z,100454.25
2024-01-05T10:01:26.927Z,100436.47
2024-01-05T10:03:57.215Z,100433.72
2024-01-05T10:06:24.220Z,100426.44
2024-01-05T10:08:57.819Z,100416.91
2024-01-05T10:11:38.380Z,100407.00
2024-01-05T10:14:08.524Z,100419.56
2024-01-05T10:16:41.476Z,100417.28
2024-01-05T10:19:16.227Z,100420.31
2024-01-05T10:21:43.876Z,100422.16
2024-01-05T10:24:21.976Z,100415.91
2024-01-05T10:27:08.526Z,100400.63
2024-01-05T10:29:37.232Z,100407.03
2024-01-05T10:32:11.748Z,100411.94
2024-01-05T10:34:38.406Z,100412.72
2024-01-05T10:37:05.831Z,100403.41
2024-01-05T10:39:33.198Z,100397.38
2024-01-05T10:42:19.023Z,100403.16
2024-01-05T10:44:46.912Z,100398.38
2024-01-05T10:47:16.455Z,100412.19
2024-01-05T10:49:52.728Z,100413.19
2024-01-05T10:52:23.514Z,100414.44
2024-01-05T10:54:51.270Z,100414.56
2024-01-05T10:57:19.906Z,100425.84
2024-01-05T10:59:46.740Z,100414.91
2024-01-05T11:02:22.761Z,100409.53
2024-01-05T11:04:55.815Z,100405.06
2024-01-05T11:07:24.346Z,100394.13
2024-01-05T11:09:54.250Z,100389.72
2024-01-05T11:12:29.201Z,100385.59
2024-01-05T11:15:08.868Z,100377.59
2024-01-05T11:17:41.341Z,100381.59
2024-01-05T11:20:12.110Z,100377.06
2024-01-05T11:22:39.872Z,100371.56
2024-01-05T11:25:06.530Z,100363.16
2024-01-05T11:27:34.406Z,100372.31
2024-01-05T11:30:01.771Z,100367.56
2024-01-05T11:32:39.264Z,100364.28
2024-01-05T11:35:18.349Z,100366.56
2024-01-05T11:37:44.993Z,100358.66
2024-01-05T11:40:27.263Z,100357.00
2024-01-05T11:42:53.926Z,100353.66
2024-01-05T11:45:39.408Z,100350.88
2024-01-05T11:48:06.434Z,100336.72
2024-01-05T11:50:34.710Z,100327.44
2024-01-05T11:53:17.643Z,100329.44
2024-01-05T11:55:54.244Z,100332.19
2024-01-05T11:58:24.215Z,100353.66
2024-01-05T12:00:51.291Z,100341.72
2024-01-05T12:03:19.262Z,100339.34
2024-01-05T12:05:50.715Z,100333.81
2024-01-05T12:08:17.916Z,100339.22
2024-01-05T12:10:44.242Z,100328.16
2024-01-05T12:13:10.583Z,100326.66
2024-01-05T12:15:42.210Z,100308.09
2024-01-05T12:18:19.931Z,100315.88
2024-01-05T12:20:55.118Z,100305.44
2024-01-05T12:23:22.009Z,100307.69
2024-01-05T12:26:05.118Z,100308.59
2024-01-05T12:28:32.226Z,100319.50
2024-01-05T12:31:02.640Z,100312.63
2024-01-05T12:33:30.337Z,100300.22
2024-01-05T12:35:57.289Z,100297.06
2024-01-05T12:38:25.075Z,100304.59
2024-01-05T12:40:52.219Z,100299.06
2024-01-05T12:43:20.147Z,100293.06
2024-01-05T12:45:50.134Z,100304.44
2024-01-05T12:48:16.992Z,100292.78
2024-01-05T12:50:43.840Z,100302.34
2024-01-05T12:53:22.730Z,100298.59
2024-01-05T12:55:49.081Z,100304.56
2024-01-05T12:58:15.422Z,100303.31
2024-01-05T13:00:43.904Z,100311.63
2024-01-05T13:03:17.211Z,100303.84
2024-01-05T13:05:44.309Z,100309.88
2024-01-05T13:08:10.839Z,100300.34
2024-01-05T13:10:40.806Z,100300.09
2024-01-05T13:13:07.638Z,100300.59
2024-01-05T13:15:34.512Z,100311.88
2024-01-05T13:18:01.846Z,100309.38
2024-01-05T13:20:28.336Z,100305.84
2024-01-05T13:23:01.547Z,100310.88
2024-01-05T13:25:27.899Z,100301.47
2024-01-05T13:27:55.213Z,100302.50
2024-01-05T13:30:21.719Z,100300.13
2024-01-05T13:32:50.027Z,100294.84
2024-01-05T13:35:17.017Z,100302.63
2024-01-05T13:37:44.413Z,100301.25
2024-01-05T13:40:11.401Z,100285.31
2024-01-05T13:42:37.796Z,100291.59
2024-01-05T13:45:06.890Z,100297.84
2024-01-05T13:47:36.254Z,100283.06
2024-01-05T13:50:03.827Z,100288.94
2024-01-05T13:52:30.471Z,100286.31
2024-01-05T13:54:57.467Z,100293.06
2024-01-05T13:57:24.034Z,100284.59
2024-01-05T13:59:51.395Z,100289.06
2024-01-05T14:02:21.585Z,100290.97
2024-01-05T14:04:49.104Z,100303.88
2024-01-05T14:07:16.291Z,100313.91
2024-01-05T14:09:43.036Z,100312.00
2024-01-05T14:12:10.143Z,100316.41
2024-01-05T14:14:36.554Z,100317.41
2024-01-05T14:17:04.119Z,100314.38
2024-01-05T14:19:30.791Z,100322.91
2024-01-05T14:21:58.525Z,100322.91
2024-01-05T14:24:27.603Z,100327.69
2024-01-05T14:26:54.332Z,100327.81
2024-01-05T14:29:21.487Z,100329.31
2024-01-05T14:31:48.876Z,100332.56
2024-01-05T14:34:15.657Z,100335.22
2024-01-05T14:36:42.305Z,100336.69
2024-01-05T14:39:11.074Z,100337.34
2024-01-05T14:41:37.526Z,100341.84
2024-01-05T14:44:04.757Z,100329.41
2024-01-05T14:46:31.238Z,100332.06
2024-01-05T14:48:58.422Z,100322.66
2024-01-05T14:51:24.842Z,100328.06
2024-01-05T14:53:51.597Z,100327.31
2024-01-05T14:56:17.955Z,100323.16
2024-01-05T14:58:47.180Z,100316.16
2024-01-05T15:01:15.693Z,100324.41
2024-01-05T15:03:42.617Z,100323.56
2024-01-05T15:06:10.433Z,100315.28
2024-01-05T15:08:37.282Z,100319.91
2024-01-05T15:11:04.485Z,100323.16
2024-01-05T15:13:31.036Z,100325.16
2024-01-05T15:16:01.008Z,100320.16
2024-01-05T15:18:27.887Z,100315.63
2024-01-05T15:20:55.349Z,100318.13
2024-01-05T15:23:21.714Z,100320.91
2024-01-05T15:25:48.655Z,100304.63
2024-01-05T15:28:15.181Z,100307.13
2024-01-05T15:30:41.658Z,100316.13
2024-01-05T15:33:08.591Z,100322.91
2024-01-05T15:35:36.744Z,100322.91
2024-01-05T15:38:06.622Z,100323.53
2024-01-05T15:40:34.558Z,100320.91
2024-01-05T15:43:02.031Z,100328.53
2024-01-05T15:45:32.756Z,100336.78
2024-01-05T15:48:00.978Z,100334.81
2024-01-05T15:50:28.909Z,100332.78
2024-01-05T15:52:55.211Z,100337.88
2024-01-05T15:55:23.612Z,100338.41
2024-01-05T15:57:50.130Z,100338.13
2024-01-05T16:00:17.178Z,100343.91
2024-01-05T16:02:43.592Z,100338.66
2024-01-05T16:05:10.165Z,100344.66
2024-01-05T16:07:36.960Z,100344.38
2024-01-05T16:10:05.290Z,100346.75
2024-01-05T16:12:31.667Z,100351.66
2024-01-05T16:14:58.343Z,100344.16
2024-01-05T16:17:24.618Z,100344.50
2024-01-05T16:19:51.386Z,100342.16
2024-01-05T16:22:17.813Z,100344.38
2024-01-05T16:24:44.227Z,100346.03
2024-01-05T16:27:10.966Z,100346.75
2024-01-05T16:29:37.275Z,100343.41
2024-01-05T16:32:04.022Z,100348.00
2024-01-05T16:34:30.486Z,100335.09
2024-01-05T16:36:57.167Z,100329.63
2024-01-05T16:39:23.511Z,100335.47
2024-01-05T16:41:50.213Z,100339.13
2024-01-05T16:44:16.522Z,100340.91
2024-01-05T16:46:43.170Z,100333.38
2024-01-05T16:49:09.608Z,100341.50
2024-01-05T16:51:36.417Z,100343.88
2024-01-05T16:54:02.961Z,100357.16
2024-01-05T16:56:30.672Z,100361.66
2024-01-05T16:58:57.732Z,100358.91
2024-01-05T17:01:25.054Z,100367.94
2024-01-05T17:03:52.232Z,100362.03
2024-01-05T17:06:20.301Z,100371.19
2024-01-05T17:08:47.409Z,100372.44
2024-01-05T17:11:14.131Z,100370.78
2024-01-05T17:13:40.789Z,100374.72
2024-01-05T17:16:11.170Z,100369.84
2024-01-05T17:18:38.762Z,100369.97
2024-01-05T17:21:06.427Z,100373.19
2024-01-05T17:23:33.122Z,100379.97
2024-01-05T17:26:01.888Z,100386.63
2024-01-05T17:28:29.125Z,100389.00
2024-01-05T17:30:56.903Z,100384.75
2024-01-05T17:33:23.383Z,100391.00
2024-01-05T17:35:50.266Z,100392.94
2024-01-05T17:38:18.627Z,100396.22
2024-01-05T17:40:45.426Z,100395.44
2024-01-05T17:45:44.464Z,100397.97
2024-01-05T17:48:11.022Z,100401.34
2024-01-05T17:50:37.394Z,100400.47
2024-01-05T17:53:04.304Z,100399.94
2024-01-05T17:55:30.622Z,100388.44
2024-01-05T17:57:58.164Z,100401.94
2024-01-05T18:00:24.752Z,100403.72
2024-01-05T18:02:51.516Z,100410.47
2024-01-05T18:05:17.845Z,100410.13
2024-01-05T18:07:44.684Z,100408.66
2024-01-05T18:10:11.293Z,100409.00
2024-01-05T18:12:38.595Z,100412.47
2024-01-05T18:15:05.647Z,100408.47
2024-01-05T18:17:32.060Z,100410.72
2024-01-05T18:19:58.869Z,100415.50
2024-01-05T18:22:25.257Z,100418.75
2024-01-05T18:24:51.931Z,100422.53
2024-01-05T18:27:18.452Z,100418.50
2024-01-05T18:29:45.141Z,100420.38
2024-01-05T18:32:11.828Z,100425.25
2024-01-05T18:34:38.821Z,100427.28
2024-01-05T18:37:05.166Z,100420.88
2024-01-05T18:39:31.982Z,100421.91
2024-01-05T18:41:58.606Z,100431.06
2024-01-05T18:44:24.943Z,100432.53
2024-01-05T18:46:53.297Z,100424.28
2024-01-05T18:49:20.059Z,100428.38
2024-01-05T18:51:46.915Z,100425.75
2024-01-05T18:54:13.703Z,100417.84
2024-01-05T18:56:40.289Z,100420.88
2024-01-05T18:59:06.980Z,100430.88
2024-01-05T19:01:33.534Z,100423.50
2024-01-05T19:04:00.888Z,100426.47
2024-01-05T19:06:27.540Z,100431.00
2024-01-05T19:08:54.424Z,100429.03
2024-01-05T19:11:21.000Z,100432.28
2024-01-05T19:13:47.756Z,100434.41
2024-01-05T19:16:14.099Z,100437.28
2024-01-05T19:18:41.105Z,100432.88
2024-01-05T19:21:07.717Z,100432.28
2024-01-05T19:23:34.992Z,100429.66
2024-01-05T19:26:02.496Z,100438.53
2024-01-05T19:28:29.214Z,100434.78
2024-01-05T19:30:56.249Z,100439.66
2024-01-05T19:33:22.816Z,100437.00
2024-01-05T19:35:49.924Z,100440.06
2024-01-05T19:38:16.837Z,100437.69
2024-01-05T19:40:44.737Z,100436.31
2024-01-05T19:43:12.238Z,100436.78
2024-01-05T19:45:38.682Z,100437.00
2024-01-05T19:48:06.237Z,100447.03
2024-01-05T19:50:32.856Z,100441.28
2024-01-05T19:53:02.075Z,100432.00
2024-01-05T19:55:28.634Z,100443.91
2024-01-05T19:57:55.427Z,100444.81
2024-01-05T20:00:22.361Z,100441.03
2024-01-05T20:02:49.263Z,100449.69
2024-01-05T20:05:15.582Z,100448.94
2024-01-05T20:07:41.902Z,100455.09
2024-01-05T20:10:09.262Z,100449.31
2024-01-05T20:12:36.451Z,100451.34
2024-01-05T20:15:03.014Z,100446.34
2024-01-05T20:17:29.997Z,100452.38
2024-01-05T20:19:56.828Z,100451.34
2024-01-05T20:22:24.780Z,100451.09
2024-01-05T20:24:51.253Z,100449.94
2024-01-05T20:27:17.655Z,100453.44
2024-01-05T20:29:46.255Z,100456.97
2024-01-05T20:32:13.482Z,100454.44
2024-01-05T20:34:40.336Z,100452.97
2024-01-05T20:37:06.785Z,100456.63
2024-01-05T20:39:33.186Z,100457.22
2024-01-05T20:42:00.157Z,100453.09
2024-01-05T20:44:26.461Z,100449.56
2024-01-05T20:46:53.213Z,100461.75
2024-01-05T20:49:19.880Z,100462.13
2024-01-05T20:51:47.496Z,100459.38
2024-01-05T20:54:14.296Z,100459.63
2024-01-05T20:56:41.138Z,100463.38
2024-01-05T20:59:07.689Z,100464.00
2024-01-05T21:01:34.438Z,100466.91
2024-01-05T21:04:00.827Z,100464.38
2024-01-05T21:06:27.698Z,100454.38
2024-01-05T21:08:54.049Z,100464.00
2024-01-05T21:11:22.436Z,100469.59
2024-01-05T21:13:48.907Z,100459.59
2024-01-05T21:16:16.153Z,100468.38
2024-01-05T21:18:42.518Z,100467.41
2024-01-05T21:21:09.427Z,100467.41
2024-01-05T21:23:35.719Z,100463.88
2024-01-05T21:26:06.253Z,100473.25
2024-01-05T21:28:32.909Z,100444.31
2024-01-05T21:30:59.960Z,100461.00
2024-01-05T21:33:26.455Z,100460.13
2024-01-05T21:35:53.844Z,100465.88
2024-01-05T21:38:20.513Z,100470.16
2024-01-05T21:40:47.945Z,100469.59
2024-01-05T21:43:14.596Z,100475.38
2024-01-05T21:45:44.056Z,100484.38
2024-01-05T21:48:10.560Z,100481.41
2024-01-05T21:50:37.201Z,100483.28
2024-01-05T21:53:03.991Z,100478.91
2024-01-05T21:55:30.792Z,100478.47
2024-01-05T21:57:57.234Z,100476.81
2024-01-05T22:00:23.682Z,100481.56
2024-01-05T22:02:51.236Z,100477.84
2024-01-05T22:05:17.599Z,100484.00
2024-01-05T22:07:44.437Z,100484.13
2024-01-05T22:10:12.716Z,100494.41
2024-01-05T22:12:39.097Z,100485.53
2024-01-05T22:15:06.376Z,100499.97
2024-01-05T22:17:34.078Z,100485.78
2024-01-05T22:20:00.719Z,100493.16
2024-01-05T22:22:28.046Z,100490.53
2024-01-05T22:24:54.858Z,100492.38
2024-01-05T22:27:21.191Z,100491.50
2024-01-05T22:29:47.579Z,100487.84
2024-01-05T22:32:14.325Z,100493.47
2024-01-05T22:34:41.991Z,100498.00
2024-01-05T22:37:08.852Z,100494.13
2024-01-05T22:39:36.893Z,100500.75
2024-01-05T22:42:03.643Z,100494.13
2024-01-05T22:44:29.935Z,100493.38
2024-01-05T22:46:56.549Z,100495.16
2024-01-05T22:49:22.994Z,100488.88
2024-01-05T22:51:49.969Z,100484.06
2024-01-05T22:54:16.397Z,100483.03
2024-01-05T22:56:43.082Z,100477.50
2024-01-05T22:59:09.736Z,100486.91
2024-01-05T23:01:36.309Z,100493.13
2024-01-05T23:04:03.218Z,100492.53
2024-01-05T23:06:30.385Z,100501.19
2024-01-05T23:08:57.126Z,100505.44
2024-01-05T23:11:23.786Z,100508.09
2024-01-05T23:13:50.324Z,100509.22
2024-01-05T23:16:16.870Z,100523.53
2024-01-05T23:18:43.428Z,100515.38
2024-01-05T23:21:10.250Z,100510.38
2024-01-05T23:23:37.846Z,100515.38
2024-01-05T23:26:05.132Z,100511.88
2024-01-05T23:28:31.909Z,100500.09
2024-01-05T23:30:58.327Z,100511.16
2024-01-05T23:33:25.218Z,100512.44
2024-01-05T23:35:52.096Z,100519.81
2024-01-05T23:38:18.786Z,100515.66
2024-01-05T23:40:45.136Z,100516.69
2024-01-05T23:43:11.443Z,100509.16
2024-01-05T23:45:38.193Z,100520.91
2024-01-05T23:48:05.299Z,100519.44
2024-01-05T23:50:32.192Z,100530.94
2024-01-05T23:53:00.529Z,100534.19
2024-01-05T23:55:28.528Z,100538.31
2024-01-05T23:57:55.113Z,100541.72
